createdAt,value
2018-03-08T00:00:03.096Z,75.50
2018-03-08T00:00:40.728Z,75.60
2018-03-08T00:01:12.374Z,75.10
2018-03-08T00:01:43.986Z,75.30
2018-03-08T00:02:15.614Z,75.20
2018-03-08T00:02:47.239Z,75.30
2018-03-08T00:03:18.876Z,75.20
2018-03-08T00:03:50.522Z,75.20
2018-03-08T00:04:22.184Z,75.10
2018-03-08T00:04:53.818Z,75.10
2018-03-08T00:05:25.454Z,75.00
2018-03-08T00:05:57.100Z,75.00
2018-03-08T00:06:28.742Z,74.90
2018-03-08T00:07:00.368Z,75.10
2018-03-08T00:07:32.024Z,74.90
2018-03-08T00:08:03.660Z,75.20
2018-03-08T00:08:35.296Z,75.20
2018-03-08T00:09:06.979Z,75.20
2018-03-08T00:09:38.587Z,75.20
2018-03-08T00:10:10.234Z,75.10
2018-03-08T00:10:41.869Z,75.20
2018-03-08T00:11:13.488Z,75.10
2018-03-08T00:11:45.112Z,75.10
2018-03-08T00:12:16.728Z,75.10
2018-03-08T00:12:48.349Z,75.10
2018-03-08T00:13:19.974Z,75.10
2018-03-08T00:13:51.602Z,75.20
2018-03-08T00:14:23.224Z,75.00
2018-03-08T00:14:54.870Z,75.00
2018-03-08T00:15:26.494Z,75.00
2018-03-08T00:15:58.134Z,75.00
2018-03-08T00:16:29.786Z,75.00
2018-03-08T00:17:01.394Z,74.90
2018-03-08T00:17:33.024Z,74.90
2018-03-08T00:18:04.656Z,74.90
2018-03-08T00:18:36.274Z,74.80
2018-03-08T00:19:07.921Z,74.80
2018-03-08T00:19:39.564Z,74.80
2018-03-08T00:20:11.216Z,74.70
2018-03-08T00:20:42.839Z,74.60
2018-03-08T00:21:14.482Z,74.70
2018-03-08T00:21:46.112Z,74.60
2018-03-08T00:22:17.770Z,74.70
2018-03-08T00:22:49.424Z,74.60
2018-03-08T00:23:21.062Z,74.60
2018-03-08T00:23:52.717Z,74.60
2018-03-08T00:24:24.368Z,74.50
2018-03-08T00:24:55.979Z,74.50
2018-03-08T00:25:27.610Z,74.40
2018-03-08T00:25:59.237Z,74.30
2018-03-08T00:26:30.872Z,74.30
2018-03-08T00:27:02.504Z,74.20
2018-03-08T00:27:34.121Z,74.30
2018-03-08T00:28:05.768Z,74.20
2018-03-08T00:28:37.400Z,74.10
2018-03-08T00:29:09.013Z,74.00
2018-03-08T00:29:40.630Z,74.00
2018-03-08T00:30:12.260Z,74.00
2018-03-08T00:30:43.912Z,74.00
2018-03-08T00:31:15.520Z,74.00
2018-03-08T00:31:47.171Z,74.00
2018-03-08T00:32:18.794Z,73.80
2018-03-08T00:32:50.410Z,73.60
2018-03-08T00:33:22.070Z,73.60
2018-03-08T00:33:53.687Z,73.60
2018-03-08T00:34:25.352Z,73.40
2018-03-08T00:34:56.989Z,73.30
2018-03-08T00:35:28.685Z,73.30
2018-03-08T00:36:00.300Z,73.20
2018-03-08T00:36:31.934Z,73.10
2018-03-08T00:37:03.574Z,73.00
2018-03-08T00:37:35.234Z,73.00
2018-03-08T00:38:06.896Z,73.10
2018-03-08T00:38:38.513Z,73.10
2018-03-08T00:39:10.127Z,73.10
2018-03-08T00:39:41.772Z,73.00
2018-03-08T00:40:13.416Z,73.00
2018-03-08T00:40:45.038Z,73.00
2018-03-08T00:41:16.683Z,73.10
2018-03-08T00:41:48.300Z,73.00
2018-03-08T00:42:19.950Z,73.10
2018-03-08T00:42:51.585Z,73.10
2018-03-08T00:43:23.231Z,73.00
2018-03-08T00:43:54.877Z,73.20
2018-03-08T00:44:26.517Z,73.20
2018-03-08T00:44:58.131Z,73.30
2018-03-08T00:45:29.739Z,73.30
2018-03-08T00:46:01.350Z,73.30
2018-03-08T00:46:32.979Z,73.40
2018-03-08T00:47:04.605Z,73.40
2018-03-08T00:47:36.242Z,73.60
2018-03-08T00:48:07.851Z,73.60
2018-03-08T00:48:39.476Z,73.60
2018-03-08T00:49:11.121Z,73.60
2018-03-08T00:49:42.754Z,73.50
2018-03-08T00:50:14.391Z,73.50
2018-03-08T00:50:46.008Z,73.40
2018-03-08T00:51:17.651Z,73.50
2018-03-08T00:51:49.281Z,73.80
2018-03-08T00:52:20.939Z,73.70
2018-03-08T00:52:52.584Z,73.70
2018-03-08T00:53:24.224Z,73.60
2018-03-08T00:53:55.873Z,73.60
2018-03-08T00:54:27.505Z,73.60
2018-03-08T00:54:59.151Z,73.60
2018-03-08T00:55:30.771Z,73.60
2018-03-08T00:56:02.381Z,73.60
2018-03-08T00:56:34.009Z,73.70
2018-03-08T00:57:05.651Z,73.50
2018-03-08T00:57:37.275Z,73.60
2018-03-08T00:58:08.900Z,73.90
2018-03-08T00:58:40.531Z,74.10
2018-03-08T00:59:12.176Z,74.30
2018-03-08T00:59:43.798Z,74.30
2018-03-08T01:00:15.459Z,74.30
2018-03-08T01:00:47.217Z,74.30
2018-03-08T01:01:18.830Z,74.40
2018-03-08T01:01:50.474Z,74.70
2018-03-08T01:02:22.111Z,75.00
2018-03-08T01:02:53.733Z,75.00
2018-03-08T01:03:25.363Z,75.10
2018-03-08T01:03:56.982Z,75.10
2018-03-08T01:04:28.615Z,75.10
2018-03-08T01:05:00.243Z,75.40
2018-03-08T01:05:31.887Z,75.30
2018-03-08T01:06:03.523Z,75.30
2018-03-08T01:06:35.176Z,75.40
2018-03-08T01:07:06.813Z,75.40
2018-03-08T01:07:38.450Z,75.50
2018-03-08T01:08:10.085Z,75.60
2018-03-08T01:08:41.691Z,75.60
2018-03-08T01:09:13.340Z,75.60
2018-03-08T01:09:44.964Z,75.60
2018-03-08T01:10:16.869Z,75.60
2018-03-08T01:10:48.498Z,75.80
2018-03-08T01:11:20.144Z,75.80
2018-03-08T01:11:51.772Z,76.00
2018-03-08T01:12:23.409Z,76.10
2018-03-08T01:12:55.046Z,76.20
2018-03-08T01:13:26.662Z,76.40
2018-03-08T01:13:58.292Z,76.60
2018-03-08T01:14:29.931Z,76.50
2018-03-08T01:15:01.560Z,76.60
2018-03-08T01:15:33.190Z,76.60
2018-03-08T01:16:04.810Z,76.60
2018-03-08T01:16:36.439Z,76.90
2018-03-08T01:17:08.091Z,76.90
2018-03-08T01:17:39.763Z,76.90
2018-03-08T01:18:11.396Z,77.00
2018-03-08T01:18:43.029Z,77.00
2018-03-08T01:19:14.672Z,76.90
2018-03-08T01:19:46.311Z,77.00
2018-03-08T01:20:17.941Z,77.10
2018-03-08T01:20:49.577Z,77.20
2018-03-08T01:21:21.217Z,77.20
2018-03-08T01:21:52.853Z,77.20
2018-03-08T01:22:24.526Z,77.10
2018-03-08T01:22:56.143Z,76.90
2018-03-08T01:23:27.805Z,77.20
2018-03-08T01:23:59.420Z,77.20
2018-03-08T01:24:31.073Z,77.10
2018-03-08T01:25:02.738Z,77.30
2018-03-08T01:25:34.373Z,77.40
2018-03-08T01:26:06.013Z,77.70
2018-03-08T01:26:37.651Z,77.60
2018-03-08T01:27:09.293Z,77.60
2018-03-08T01:27:40.930Z,77.60
2018-03-08T01:28:12.546Z,78.00
2018-03-08T01:28:44.179Z,78.20
2018-03-08T01:29:15.818Z,78.50
2018-03-08T01:29:47.469Z,78.50
2018-03-08T01:30:19.115Z,78.50
2018-03-08T01:30:50.745Z,78.60
2018-03-08T01:31:22.384Z,78.50
2018-03-08T01:31:54.009Z,78.50
2018-03-08T01:32:25.635Z,78.50
2018-03-08T01:32:57.264Z,78.70
2018-03-08T01:33:28.921Z,78.90
2018-03-08T01:34:00.574Z,78.80
2018-03-08T01:34:32.172Z,78.80
2018-03-08T01:35:03.841Z,78.70
2018-03-08T01:35:35.475Z,78.60
2018-03-08T01:36:25.778Z,78.60
2018-03-08T01:36:57.427Z,78.90
2018-03-08T01:37:29.066Z,78.70
2018-03-08T01:38:00.705Z,78.70
2018-03-08T01:38:32.337Z,78.80
2018-03-08T01:39:04.013Z,78.80
2018-03-08T01:39:35.669Z,78.80
2018-03-08T01:40:07.336Z,78.90
2018-03-08T01:40:38.940Z,78.90
2018-03-08T01:41:10.571Z,78.90
2018-03-08T01:41:42.202Z,78.90
2018-03-08T01:42:13.823Z,78.90
2018-03-08T01:42:45.479Z,78.90
2018-03-08T01:43:17.110Z,79.10
2018-03-08T01:43:48.743Z,79.00
2018-03-08T01:44:20.382Z,79.00
2018-03-08T01:44:52.058Z,79.00
2018-03-08T01:45:23.752Z,78.90
2018-03-08T01:45:55.403Z,78.90
2018-03-08T01:46:27.016Z,79.20
2018-03-08T01:46:58.687Z,79.20
2018-03-08T01:47:30.369Z,79.20
2018-03-08T01:48:02.026Z,79.30
2018-03-08T01:48:33.651Z,79.20
2018-03-08T01:49:05.264Z,79.20
2018-03-08T01:49:36.917Z,79.20
2018-03-08T01:50:08.565Z,79.20
2018-03-08T01:50:40.197Z,79.10
2018-03-08T01:51:11.819Z,79.20
2018-03-08T01:52:02.109Z,79.20
2018-03-08T01:52:33.751Z,79.10
2018-03-08T01:53:05.387Z,79.50
2018-03-08T01:53:36.999Z,79.50
2018-03-08T01:54:08.609Z,79.70
2018-03-08T01:54:40.264Z,79.70
2018-03-08T01:55:11.877Z,79.80
2018-03-08T01:55:43.501Z,79.80
2018-03-08T01:56:15.118Z,79.90
2018-03-08T01:56:46.751Z,79.80
2018-03-08T01:57:18.392Z,79.80
2018-03-08T01:57:50.045Z,79.70
2018-03-08T01:58:21.685Z,79.80
2018-03-08T01:58:53.323Z,79.90
2018-03-08T01:59:24.971Z,79.80
2018-03-08T01:59:56.622Z,79.80
2018-03-08T02:00:28.276Z,79.90
2018-03-08T02:00:59.906Z,80.00
2018-03-08T02:01:31.563Z,80.10
2018-03-08T02:02:03.210Z,80.20
2018-03-08T02:02:34.843Z,80.30
2018-03-08T02:03:06.455Z,80.30
2018-03-08T02:03:38.108Z,80.20
2018-03-08T02:04:09.741Z,80.30
2018-03-08T02:04:41.372Z,80.30
2018-03-08T02:05:13.008Z,80.50
2018-03-08T02:05:44.643Z,80.60
2018-03-08T02:06:16.289Z,80.60
2018-03-08T02:06:47.943Z,80.60
2018-03-08T02:07:19.600Z,80.50
2018-03-08T02:07:51.243Z,80.50
2018-03-08T02:08:22.886Z,80.70
2018-03-08T02:08:54.525Z,80.60
2018-03-08T02:09:26.165Z,80.80
2018-03-08T02:09:57.788Z,80.80
2018-03-08T02:10:29.445Z,80.90
2018-03-08T02:11:01.097Z,80.90
2018-03-08T02:11:32.725Z,81.00
2018-03-08T02:12:04.391Z,81.00
2018-03-08T02:12:36.041Z,80.80
2018-03-08T02:13:07.653Z,80.70
2018-03-08T02:13:39.269Z,80.50
2018-03-08T02:14:10.891Z,80.50
2018-03-08T02:14:42.525Z,80.50
2018-03-08T02:15:14.181Z,80.60
2018-03-08T02:15:45.823Z,80.80
2018-03-08T02:16:17.447Z,81.00
2018-03-08T02:16:49.069Z,81.10
2018-03-08T02:17:20.726Z,81.10
2018-03-08T02:17:52.457Z,81.10
2018-03-08T02:18:24.093Z,81.00
2018-03-08T02:18:55.726Z,80.90
2018-03-08T02:19:27.349Z,80.80
2018-03-08T02:19:58.977Z,81.10
2018-03-08T02:20:30.641Z,81.10
2018-03-08T02:21:02.276Z,81.10
2018-03-08T02:21:33.899Z,81.20
2018-03-08T02:22:05.544Z,81.10
2018-03-08T02:22:37.191Z,81.00
2018-03-08T02:23:08.834Z,80.90
2018-03-08T02:23:40.449Z,80.90
2018-03-08T02:24:12.101Z,80.90
2018-03-08T02:24:43.733Z,80.80
2018-03-08T02:25:15.375Z,80.80
2018-03-08T02:25:47.009Z,80.80
2018-03-08T02:26:18.661Z,80.90
2018-03-08T02:26:50.285Z,81.10
2018-03-08T02:27:21.923Z,81.10
2018-03-08T02:27:53.545Z,81.00
2018-03-08T02:28:25.173Z,81.00
2018-03-08T02:28:56.821Z,81.00
2018-03-08T02:29:28.427Z,81.00
2018-03-08T02:30:00.064Z,80.90
2018-03-08T02:30:31.692Z,81.00
2018-03-08T02:31:03.337Z,81.00
2018-03-08T02:31:34.982Z,81.00
2018-03-08T02:32:06.622Z,80.90
2018-03-08T02:32:38.251Z,80.80
2018-03-08T02:33:09.894Z,80.80
2018-03-08T02:33:41.526Z,80.80
2018-03-08T02:34:13.153Z,81.00
2018-03-08T02:34:44.799Z,80.90
2018-03-08T02:35:16.431Z,81.10
2018-03-08T02:35:48.074Z,81.00
2018-03-08T02:36:19.717Z,81.00
2018-03-08T02:36:51.371Z,80.80
2018-03-08T02:37:22.977Z,80.90
2018-03-08T02:37:54.595Z,81.20
2018-03-08T02:38:26.222Z,81.40
2018-03-08T02:38:57.864Z,81.40
2018-03-08T02:39:29.501Z,81.30
2018-03-08T02:40:01.140Z,81.40
2018-03-08T02:40:32.766Z,81.20
2018-03-08T02:41:04.409Z,81.30
2018-03-08T02:41:36.063Z,81.20
2018-03-08T02:42:07.755Z,81.30
2018-03-08T02:42:39.389Z,81.40
2018-03-08T02:43:11.050Z,81.30
2018-03-08T02:43:42.687Z,81.10
2018-03-08T02:44:14.370Z,81.10
2018-03-08T02:44:46.010Z,81.20
2018-03-08T02:45:17.681Z,81.40
2018-03-08T02:45:49.315Z,81.30
2018-03-08T02:46:20.935Z,81.10
2018-03-08T02:46:52.594Z,81.10
2018-03-08T02:47:24.246Z,81.20
2018-03-08T02:47:55.871Z,81.30
2018-03-08T02:48:27.504Z,81.10
2018-03-08T02:48:59.130Z,81.10
2018-03-08T02:49:30.774Z,80.90
2018-03-08T02:50:02.449Z,80.90
2018-03-08T02:50:34.101Z,81.10
2018-03-08T02:51:05.716Z,81.10
2018-03-08T02:51:37.363Z,81.00
2018-03-08T02:52:08.980Z,81.10
2018-03-08T02:52:40.621Z,81.10
2018-03-08T02:53:12.245Z,81.20
2018-03-08T02:53:43.889Z,81.10
2018-03-08T02:54:15.504Z,81.00
2018-03-08T02:54:47.117Z,81.10
2018-03-08T02:55:18.731Z,81.20
2018-03-08T02:55:50.358Z,81.20
2018-03-08T02:56:21.995Z,81.30
2018-03-08T02:56:53.658Z,81.30
2018-03-08T02:57:25.285Z,81.50
2018-03-08T02:57:56.944Z,81.40
2018-03-08T02:58:28.555Z,81.40
2018-03-08T02:59:00.167Z,81.30
2018-03-08T02:59:31.807Z,81.40
2018-03-08T03:00:03.487Z,81.40
2018-03-08T03:00:35.135Z,81.50
2018-03-08T03:01:06.807Z,81.50
2018-03-08T03:01:38.439Z,81.60
2018-03-08T03:02:10.408Z,81.70
2018-03-08T03:02:42.046Z,81.70
2018-03-08T03:03:13.693Z,81.50
2018-03-08T03:03:45.320Z,81.40
2018-03-08T03:04:16.957Z,81.30
2018-03-08T03:04:48.577Z,81.40
2018-03-08T03:05:20.216Z,81.50
2018-03-08T03:05:51.864Z,81.50
2018-03-08T03:06:23.491Z,81.60
2018-03-08T03:06:55.105Z,81.70
2018-03-08T03:07:26.732Z,81.60
2018-03-08T03:07:58.367Z,81.60
2018-03-08T03:08:30.009Z,81.80
2018-03-08T03:09:01.657Z,81.90
2018-03-08T03:09:33.309Z,81.80
2018-03-08T03:10:04.972Z,81.80
2018-03-08T03:10:36.643Z,81.60
2018-03-08T03:11:08.261Z,81.80
2018-03-08T03:11:39.876Z,81.90
2018-03-08T03:12:11.517Z,82.00
2018-03-08T03:12:43.127Z,82.10
2018-03-08T03:13:14.768Z,82.10
2018-03-08T03:13:46.428Z,82.10
2018-03-08T03:14:18.133Z,82.10
2018-03-08T03:14:49.789Z,82.10
2018-03-08T03:15:21.426Z,82.10
2018-03-08T03:15:53.061Z,82.10
2018-03-08T03:16:24.701Z,82.20
2018-03-08T03:16:56.319Z,82.50
2018-03-08T03:17:27.946Z,82.50
2018-03-08T03:18:00.501Z,82.60
2018-03-08T03:18:32.131Z,82.80
2018-03-08T03:19:03.801Z,82.80
2018-03-08T03:19:35.459Z,82.80
2018-03-08T03:20:07.093Z,82.90
2018-03-08T03:20:38.753Z,82.90
2018-03-08T03:21:10.384Z,83.10
2018-03-08T03:21:42.015Z,83.10
2018-03-08T03:22:13.635Z,83.10
2018-03-08T03:22:45.249Z,83.30
2018-03-08T03:23:16.849Z,83.40
2018-03-08T03:23:48.469Z,83.50
2018-03-08T03:24:20.105Z,83.70
2018-03-08T03:24:51.713Z,84.00
2018-03-08T03:25:23.351Z,84.00
2018-03-08T03:25:54.977Z,83.90
2018-03-08T03:26:26.603Z,84.00
2018-03-08T03:26:58.251Z,84.00
2018-03-08T03:27:29.871Z,84.10
2018-03-08T03:28:01.491Z,84.10
2018-03-08T03:28:33.125Z,84.20
2018-03-08T03:29:04.735Z,84.20
2018-03-08T03:29:36.395Z,84.30
2018-03-08T03:30:08.035Z,84.30
2018-03-08T03:30:39.692Z,84.30
2018-03-08T03:31:11.329Z,84.30
2018-03-08T03:31:42.950Z,84.40
2018-03-08T03:32:14.570Z,84.40
2018-03-08T03:32:46.189Z,84.40
2018-03-08T03:33:17.821Z,84.50
2018-03-08T03:33:49.449Z,84.50
2018-03-08T03:34:21.104Z,84.40
2018-03-08T03:34:52.743Z,84.50
2018-03-08T03:35:24.394Z,84.90
2018-03-08T03:35:56.027Z,84.90
2018-03-08T03:36:27.657Z,85.00
2018-03-08T03:36:59.251Z,84.90
2018-03-08T03:37:30.873Z,85.00
2018-03-08T03:38:02.528Z,85.10
2018-03-08T03:38:34.167Z,85.10
2018-03-08T03:39:05.807Z,84.90
2018-03-08T03:39:37.455Z,84.80
2018-03-08T03:40:09.077Z,85.00
2018-03-08T03:40:40.700Z,85.20
2018-03-08T03:41:12.325Z,85.30
2018-03-08T03:41:43.963Z,85.40
2018-03-08T03:42:15.589Z,85.40
2018-03-08T03:42:47.259Z,85.40
2018-03-08T03:43:18.871Z,85.40
2018-03-08T03:43:50.481Z,85.50
2018-03-08T03:44:22.105Z,85.50
2018-03-08T03:44:53.745Z,85.60
2018-03-08T03:45:25.388Z,85.60
2018-03-08T03:45:57.029Z,85.50
2018-03-08T03:46:28.654Z,85.40
2018-03-08T03:47:00.307Z,85.60
2018-03-08T03:47:31.957Z,85.70
2018-03-08T03:48:03.596Z,85.70
2018-03-08T03:48:35.237Z,85.70
2018-03-08T03:49:06.847Z,85.60
2018-03-08T03:49:38.506Z,85.60
2018-03-08T03:50:10.145Z,85.70
2018-03-08T03:50:41.789Z,85.70
2018-03-08T03:51:13.429Z,85.70
2018-03-08T03:51:45.060Z,85.70
2018-03-08T03:52:16.689Z,85.60
2018-03-08T03:52:48.329Z,85.60
2018-03-08T03:53:19.966Z,85.60
2018-03-08T03:53:51.601Z,85.50
2018-03-08T03:54:23.214Z,85.50
2018-03-08T03:54:54.859Z,85.60
2018-03-08T03:55:26.485Z,85.50
2018-03-08T03:55:58.137Z,85.70
2018-03-08T03:56:29.762Z,86.00
2018-03-08T03:57:01.385Z,86.00
2018-03-08T03:57:33.049Z,86.30
2018-03-08T03:58:04.666Z,86.10
2018-03-08T03:58:36.297Z,86.30
2018-03-08T03:59:07.913Z,86.20
2018-03-08T03:59:39.563Z,86.10
2018-03-08T04:00:11.199Z,86.10
2018-03-08T04:00:42.833Z,86.10
2018-03-08T04:01:14.474Z,86.30
2018-03-08T04:01:46.101Z,86.30
2018-03-08T04:02:17.727Z,86.30
2018-03-08T04:02:49.345Z,86.30
2018-03-08T04:03:20.970Z,86.40
2018-03-08T04:03:52.585Z,86.30
2018-03-08T04:04:24.215Z,86.30
2018-03-08T04:04:55.849Z,86.40
2018-03-08T04:05:27.517Z,86.40
2018-03-08T04:05:59.136Z,86.40
2018-03-08T04:06:30.769Z,86.40
2018-03-08T04:07:02.423Z,86.50
2018-03-08T04:07:34.029Z,86.60
2018-03-08T04:08:05.664Z,86.70
2018-03-08T04:08:37.292Z,86.80
2018-03-08T04:09:08.935Z,86.80
2018-03-08T04:09:40.563Z,86.70
2018-03-08T04:10:12.201Z,86.70
2018-03-08T04:10:43.835Z,86.90
2018-03-08T04:11:15.497Z,86.80
2018-03-08T04:11:47.139Z,86.80
2018-03-08T04:12:18.768Z,86.90
2018-03-08T04:12:50.375Z,86.80
2018-03-08T04:13:21.985Z,86.90
2018-03-08T04:13:53.633Z,86.80
2018-03-08T04:14:25.253Z,87.00
2018-03-08T04:14:56.897Z,87.00
2018-03-08T04:15:28.531Z,86.90
2018-03-08T04:16:00.155Z,86.80
2018-03-08T04:16:31.800Z,86.80
2018-03-08T04:17:03.470Z,86.90
2018-03-08T04:17:35.102Z,86.70
2018-03-08T04:18:06.708Z,86.70
2018-03-08T04:18:42.249Z,86.60
2018-03-08T04:19:13.883Z,86.60
2018-03-08T04:19:45.507Z,86.50
2018-03-08T04:20:17.171Z,86.60
2018-03-08T04:20:48.813Z,86.60
2018-03-08T04:21:20.473Z,86.70
2018-03-08T04:21:52.113Z,86.70
2018-03-08T04:22:23.785Z,86.70
2018-03-08T04:22:55.423Z,86.60
2018-03-08T04:23:27.058Z,86.60
2018-03-08T04:23:58.713Z,86.70
2018-03-08T04:24:30.329Z,86.70
2018-03-08T04:25:01.969Z,86.70
2018-03-08T04:25:33.608Z,86.70
2018-03-08T04:26:05.254Z,86.70
2018-03-08T04:26:36.909Z,86.70
2018-03-08T04:27:08.537Z,86.60
2018-03-08T04:27:40.171Z,86.70
2018-03-08T04:28:11.796Z,87.00
2018-03-08T04:28:43.519Z,86.90
2018-03-08T04:29:15.137Z,86.90
2018-03-08T04:29:46.750Z,86.90
2018-03-08T04:30:18.367Z,86.80
2018-03-08T04:30:49.984Z,86.80
2018-03-08T04:31:21.633Z,86.80
2018-03-08T04:31:53.257Z,86.80
2018-03-08T04:32:24.907Z,86.90
2018-03-08T04:32:56.554Z,86.90
2018-03-08T04:33:28.213Z,87.00
2018-03-08T04:33:59.837Z,87.20
2018-03-08T04:34:31.453Z,87.20
2018-03-08T04:35:03.105Z,87.30
2018-03-08T04:35:34.761Z,87.60
2018-03-08T04:36:06.378Z,87.60
2018-03-08T04:36:38.013Z,87.60
2018-03-08T04:37:09.639Z,87.60
2018-03-08T04:37:41.269Z,87.70
2018-03-08T04:38:12.917Z,87.70
2018-03-08T04:38:44.532Z,87.90
2018-03-08T04:39:16.161Z,88.10
2018-03-08T04:39:47.768Z,88.30
2018-03-08T04:40:19.401Z,88.30
2018-03-08T04:40:51.038Z,88.30
2018-03-08T04:41:22.657Z,88.30
2018-03-08T04:41:54.280Z,88.40
2018-03-08T04:42:25.907Z,88.60
2018-03-08T04:42:57.551Z,88.40
2018-03-08T04:43:29.183Z,88.40
2018-03-08T04:44:00.793Z,88.40
2018-03-08T04:44:32.437Z,88.50
2018-03-08T04:45:04.069Z,88.50
2018-03-08T04:45:35.713Z,88.40
2018-03-08T04:46:07.331Z,88.50
2018-03-08T04:46:38.985Z,88.50
2018-03-08T04:47:10.933Z,88.40
2018-03-08T04:47:42.561Z,88.40
2018-03-08T04:48:14.203Z,88.40
2018-03-08T04:48:45.850Z,88.50
2018-03-08T04:49:17.462Z,88.50
2018-03-08T04:49:49.093Z,88.60
2018-03-08T04:50:20.722Z,88.60
2018-03-08T04:50:52.348Z,88.70
2018-03-08T04:51:23.964Z,88.60
2018-03-08T04:51:55.597Z,88.70
2018-03-08T04:52:27.515Z,88.60
2018-03-08T04:52:59.154Z,88.60
2018-03-08T04:53:30.801Z,88.60
2018-03-08T04:54:02.447Z,88.50
2018-03-08T04:54:34.075Z,88.60
2018-03-08T04:55:05.712Z,88.70
2018-03-08T04:55:37.347Z,88.60
2018-03-08T04:56:08.984Z,88.60
2018-03-08T04:56:40.631Z,88.50
2018-03-08T04:57:12.251Z,88.50
2018-03-08T04:57:43.881Z,88.30
2018-03-08T04:58:15.493Z,88.30
2018-03-08T04:58:47.104Z,88.30
2018-03-08T04:59:18.739Z,88.30
2018-03-08T04:59:50.392Z,88.30
2018-03-08T05:00:22.008Z,88.30
2018-03-08T05:00:53.625Z,88.50
2018-03-08T05:01:25.270Z,88.60
2018-03-08T05:01:56.933Z,88.60
2018-03-08T05:02:28.570Z,88.60
2018-03-08T05:03:00.210Z,88.70
2018-03-08T05:03:31.835Z,88.80
2018-03-08T05:04:03.477Z,88.90
2018-03-08T05:04:35.115Z,88.90
2018-03-08T05:05:06.738Z,88.90
2018-03-08T05:05:38.388Z,88.60
2018-03-08T05:06:10.019Z,88.80
2018-03-08T05:06:41.663Z,88.80
2018-03-08T05:07:13.311Z,88.80
2018-03-08T05:07:44.937Z,88.80
2018-03-08T05:08:16.587Z,88.90
2018-03-08T05:08:48.224Z,89.00
2018-03-08T05:09:19.876Z,88.90
2018-03-08T05:09:51.534Z,88.90
2018-03-08T05:10:23.189Z,89.00
2018-03-08T05:10:54.826Z,89.00
2018-03-08T05:11:26.494Z,88.90
2018-03-08T05:11:58.131Z,88.90
2018-03-08T05:12:29.791Z,89.00
2018-03-08T05:13:01.437Z,88.70
2018-03-08T05:13:33.089Z,88.60
2018-03-08T05:14:04.709Z,88.40
2018-03-08T05:14:36.363Z,88.60
2018-03-08T05:15:08.029Z,88.40
2018-03-08T05:15:39.649Z,88.30
2018-03-08T05:16:11.253Z,88.40
2018-03-08T05:16:42.877Z,88.40
2018-03-08T05:17:14.528Z,88.40
2018-03-08T05:17:46.145Z,88.50
2018-03-08T05:18:17.781Z,88.50
2018-03-08T05:18:49.435Z,88.40
2018-03-08T05:19:21.059Z,88.40
2018-03-08T05:19:52.685Z,88.30
2018-03-08T05:20:24.309Z,88.20
2018-03-08T05:20:55.964Z,88.20
2018-03-08T05:21:27.589Z,88.10
2018-03-08T05:21:59.260Z,88.10
2018-03-08T05:22:30.895Z,88.10
2018-03-08T05:23:02.551Z,88.00
2018-03-08T05:23:34.170Z,87.90
2018-03-08T05:24:05.810Z,88.00
2018-03-08T05:24:37.462Z,88.00
2018-03-08T05:25:09.078Z,87.80
2018-03-08T05:25:40.739Z,87.70
2018-03-08T05:26:12.385Z,87.50
2018-03-08T05:26:44.029Z,87.40
2018-03-08T05:27:15.657Z,87.40
2018-03-08T05:27:47.272Z,87.30
2018-03-08T05:28:18.915Z,87.30
2018-03-08T05:28:50.533Z,87.30
2018-03-08T05:29:22.165Z,87.20
2018-03-08T05:29:53.806Z,87.10
2018-03-08T05:30:25.439Z,87.00
2018-03-08T05:30:57.086Z,86.90
2018-03-08T05:31:28.731Z,86.90
2018-03-08T05:32:00.362Z,87.00
2018-03-08T05:32:31.981Z,86.90
2018-03-08T05:33:03.613Z,86.80
2018-03-08T05:33:35.241Z,86.80
2018-03-08T05:34:06.932Z,86.70
2018-03-08T05:34:38.570Z,87.20
2018-03-08T05:35:10.186Z,87.20
2018-03-08T05:35:41.823Z,87.10
2018-03-08T05:36:13.512Z,87.00
2018-03-08T05:36:45.137Z,86.90
2018-03-08T05:37:16.771Z,86.70
2018-03-08T05:37:48.415Z,86.60
2018-03-08T05:38:20.044Z,86.50
2018-03-08T05:38:51.661Z,86.40
2018-03-08T05:39:23.283Z,86.30
2018-03-08T05:39:54.913Z,86.30
2018-03-08T05:40:26.517Z,86.30
2018-03-08T05:40:58.144Z,86.20
2018-03-08T05:41:29.792Z,86.30
2018-03-08T05:42:01.407Z,86.30
2018-03-08T05:42:33.016Z,86.10
2018-03-08T05:43:04.647Z,86.00
2018-03-08T05:43:36.258Z,86.00
2018-03-08T05:44:07.883Z,85.90
2018-03-08T05:44:39.492Z,86.00
2018-03-08T05:45:11.111Z,85.90
2018-03-08T05:45:42.725Z,85.80
2018-03-08T05:46:14.342Z,86.00
2018-03-08T05:46:45.966Z,86.00
2018-03-08T05:47:17.577Z,86.00
2018-03-08T05:47:49.225Z,86.00
2018-03-08T05:48:20.844Z,86.00
2018-03-08T05:48:52.475Z,86.00
2018-03-08T05:49:24.101Z,86.00
2018-03-08T05:49:55.711Z,85.90
2018-03-08T05:50:27.360Z,85.90
2018-03-08T05:50:58.985Z,85.90
2018-03-08T05:51:30.619Z,85.90
2018-03-08T05:52:02.285Z,85.90
2018-03-08T05:52:33.918Z,85.90
2018-03-08T05:53:05.516Z,86.00
2018-03-08T05:53:37.152Z,86.00
2018-03-08T05:54:08.761Z,86.00
2018-03-08T05:54:40.407Z,86.00
2018-03-08T05:55:12.047Z,85.90
2018-03-08T05:55:43.668Z,86.00
2018-03-08T05:56:15.297Z,86.00
2018-03-08T05:56:46.951Z,86.00
2018-03-08T05:57:18.613Z,86.00
2018-03-08T05:57:50.259Z,86.00
2018-03-08T05:58:21.909Z,86.00
2018-03-08T05:58:53.529Z,86.00
2018-03-08T05:59:25.141Z,86.00
2018-03-08T05:59:56.773Z,86.00
2018-03-08T06:00:28.427Z,86.00
2018-03-08T06:01:00.035Z,86.00
2018-03-08T06:01:31.648Z,86.00
2018-03-08T06:02:03.270Z,86.00
2018-03-08T06:02:34.923Z,86.00
2018-03-08T06:03:06.553Z,86.00
2018-03-08T06:03:38.204Z,85.90
2018-03-08T06:04:09.873Z,86.00
2018-03-08T06:04:41.560Z,86.00
2018-03-08T06:05:13.186Z,86.00
2018-03-08T06:05:44.829Z,85.90
2018-03-08T06:06:16.458Z,85.80
2018-03-08T06:06:48.056Z,86.00
2018-03-08T06:07:19.681Z,85.80
2018-03-08T06:07:51.337Z,86.00
2018-03-08T06:08:22.957Z,86.00
2018-03-08T06:08:54.573Z,86.00
2018-03-08T06:09:26.184Z,86.00
2018-03-08T06:09:57.843Z,85.80
2018-03-08T06:10:29.475Z,86.00
2018-03-08T06:11:01.085Z,85.90
2018-03-08T06:11:32.707Z,86.00
2018-03-08T06:12:04.363Z,85.90
2018-03-08T06:12:35.997Z,86.00
2018-03-08T06:13:07.651Z,85.90
2018-03-08T06:13:39.288Z,86.10
2018-03-08T06:14:10.914Z,86.10
2018-03-08T06:14:42.534Z,86.20
2018-03-08T06:15:14.190Z,86.30
2018-03-08T06:15:45.821Z,86.30
2018-03-08T06:16:17.468Z,86.40
2018-03-08T06:16:49.101Z,86.50
2018-03-08T06:17:20.732Z,86.60
2018-03-08T06:17:52.393Z,86.60
2018-03-08T06:18:24.027Z,86.70
2018-03-08T06:18:55.641Z,86.70
2018-03-08T06:19:27.256Z,86.90
2018-03-08T06:19:58.870Z,86.90
2018-03-08T06:20:30.522Z,86.90
2018-03-08T06:21:02.137Z,86.80
2018-03-08T06:21:33.758Z,86.90
2018-03-08T06:22:05.386Z,86.90
2018-03-08T06:22:36.997Z,86.80
2018-03-08T06:23:08.634Z,87.00
2018-03-08T06:23:40.274Z,86.70
2018-03-08T06:24:11.914Z,86.70
2018-03-08T06:24:43.543Z,86.70
2018-03-08T06:25:15.168Z,86.60
2018-03-08T06:25:46.788Z,86.70
2018-03-08T06:26:18.426Z,86.60
2018-03-08T06:26:50.058Z,86.60
2018-03-08T06:27:21.685Z,86.50
2018-03-08T06:27:53.309Z,86.50
2018-03-08T06:28:24.961Z,86.30
2018-03-08T06:28:56.607Z,86.20
2018-03-08T06:29:28.246Z,86.00
2018-03-08T06:29:59.876Z,85.90
2018-03-08T06:30:31.522Z,85.70
2018-03-08T06:31:03.157Z,85.60
2018-03-08T06:31:34.806Z,85.60
2018-03-08T06:32:06.445Z,85.50
2018-03-08T06:32:38.069Z,85.60
2018-03-08T06:33:09.708Z,85.40
2018-03-08T06:33:41.344Z,85.40
2018-03-08T06:34:12.984Z,85.10
2018-03-08T06:34:44.602Z,85.00
2018-03-08T06:35:16.226Z,85.00
2018-03-08T06:35:47.862Z,84.90
2018-03-08T06:36:19.488Z,84.70
2018-03-08T06:36:51.132Z,84.50
2018-03-08T06:37:22.761Z,84.50
2018-03-08T06:37:54.408Z,84.30
2018-03-08T06:38:26.174Z,84.10
2018-03-08T06:38:57.851Z,84.20
2018-03-08T06:39:29.457Z,84.20
2018-03-08T06:40:01.098Z,84.00
2018-03-08T06:40:32.733Z,83.80
2018-03-08T06:41:04.375Z,83.80
2018-03-08T06:41:36.005Z,83.60
2018-03-08T06:42:07.637Z,83.40
2018-03-08T06:42:39.259Z,82.80
2018-03-08T06:43:10.885Z,82.80
2018-03-08T06:43:42.519Z,82.20
2018-03-08T06:44:14.173Z,82.40
2018-03-08T06:44:45.841Z,82.00
2018-03-08T06:45:17.438Z,82.10
2018-03-08T06:45:49.078Z,82.00
2018-03-08T06:46:20.702Z,81.50
2018-03-08T06:46:52.343Z,81.80
2018-03-08T06:47:23.979Z,81.80
2018-03-08T06:47:55.641Z,81.20